Time;durP1;ratioP1;P1;durP2;ratioP2;P2;SDS_P1;SDS_P2;PMS_P1;PMS_P2;Temp;Humidity;BMP_temperature;BMP_pressure;BME280_temperature;BME280_humidity;BME280_pressure;Samples;Min_cycle;Max_cycle;Signal;HPM_P1;HPM_P2
2023/04/04 00:02:23;;;;;;;7.90;3.55;;;1.60;1.00;;;;;;5074494;28;20020;-79
2023/04/04 00:04:48;;;;;;;10.00;4.05;;;1.60;1.00;;;;;;5074970;28;20424;-79
2023/04/04 00:07:14;;;;;;;4.95;2.80;;;1.60;1.00;;;;;;5074840;28;20024;-79
2023/04/04 00:09:40;;;;;;;9.05;3.40;;;1.50;1.00;;;;;;5074962;28;20013;-79
2023/04/04 00:12:05;;;;;;;8.35;3.80;;;1.40;1.00;;;;;;5074337;28;20029;-79
2023/04/04 00:14:31;;;;;;;9.38;3.50;;;1.40;1.00;;;;;;5074484;28;20025;-80
2023/04/04 00:16:56;;;;;;;6.28;3.30;;;1.40;1.00;;;;;;5074312;28;20028;-80
2023/04/04 00:19:23;;;;;;;8.70;4.22;;;1.30;1.00;;;;;;5074596;28;20039;-79
2023/04/04 00:21:49;;;;;;;11.25;3.47;;;1.30;99.90;;;;;;5074593;28;20470;-79
2023/04/04 00:24:14;;;;;;;9.18;3.63;;;1.20;99.90;;;;;;5073364;28;20066;-79
2023/04/04 00:26:40;;;;;;;9.45;4.05;;;1.00;99.90;;;;;;5074636;28;20052;-79
2023/04/04 00:29:06;;;;;;;9.70;4.10;;;0.90;1.00;;;;;;5074464;28;20024;-79
2023/04/04 00:31:31;;;;;;;10.27;3.83;;;0.80;1.00;;;;;;5073933;28;20029;-79
2023/04/04 00:33:57;;;;;;;8.07;3.97;;;0.70;1.00;;;;;;5074457;28;20029;-79
2023/04/04 00:36:23;;;;;;;13.02;5.15;;;0.80;1.00;;;;;;5073893;28;20062;-79
2023/04/04 00:38:48;;;;;;;10.00;4.03;;;0.80;1.00;;;;;;5074094;28;20020;-78
2023/04/04 00:41:15;;;;;;;8.50;4.25;;;0.80;1.00;;;;;;5073943;28;20024;-79
2023/04/04 00:43:41;;;;;;;12.98;4.35;;;0.80;1.00;;;;;;5074262;28;20028;-79
2023/04/04 00:46:07;;;;;;;8.27;3.80;;;0.70;1.00;;;;;;5074114;28;20037;-79
2023/04/04 00:48:33;;;;;;;8.15;3.78;;;0.70;39.70;;;;;;5074594;28;20382;-79
2023/04/04 00:50:59;;;;;;;10.77;4.13;;;0.80;20.60;;;;;;5073885;28;20033;-79
2023/04/04 00:53:24;;;;;;;9.43;4.22;;;0.80;22.80;;;;;;5073660;28;20032;-79
2023/04/04 00:55:50;;;;;;;9.60;4.40;;;0.90;1.00;;;;;;5074805;28;20033;-78
2023/04/04 00:58:16;;;;;;;10.88;4.72;;;0.90;1.00;;;;;;5073883;28;20024;-78
2023/04/04 01:00:42;;;;;;;7.93;3.65;;;0.90;1.00;;;;;;5073812;28;20074;-79
2023/04/04 01:03:11;;;;;;;7.55;4.10;;;0.80;1.00;;;;;;5073419;28;20025;-79
2023/04/04 01:05:37;;;;;;;8.40;3.97;;;0.60;7.90;;;;;;5073386;28;20032;-79
2023/04/04 01:08:03;;;;;;;8.15;4.20;;;0.60;99.90;;;;;;5073932;28;20047;-78
2023/04/04 01:10:30;;;;;;;10.90;4.30;;;0.60;99.90;;;;;;5073815;28;20029;-79
2023/04/04 01:12:56;;;;;;;8.95;4.63;;;0.60;91.80;;;;;;5073662;28;20020;-79
2023/04/04 01:15:21;;;;;;;8.82;4.18;;;0.60;99.90;;;;;;5073530;28;20494;-79
2023/04/04 01:17:48;;;;;;;8.30;3.92;;;0.80;20.10;;;;;;5073821;28;20398;-79
2023/04/04 01:20:16;;;;;;;9.15;4.22;;;0.70;1.00;;;;;;5073371;28;20024;-78
2023/04/04 01:22:42;;;;;;;7.07;4.28;;;0.80;1.00;;;;;;5073587;28;20029;-79
2023/04/04 01:25:10;;;;;;;6.47;3.75;;;0.90;1.00;;;;;;5073138;28;20047;-79
2023/04/04 01:27:35;;;;;;;7.03;3.97;;;0.80;1.00;;;;;;5073535;28;20111;-79
2023/04/04 01:30:02;;;;;;;8.93;4.00;;;0.80;1.00;;;;;;5073433;28;20056;-79
2023/04/04 01:35:49;;;;;;;11.52;5.07;;;0.60;1.00;;;;;;5119634;22;20424;-73
2023/04/04 01:38:43;;;;;;;12.43;4.93;;;0.10;97.20;;;;;;5111725;28;20028;-73
2023/04/04 01:41:11;;;;;;;10.05;5.25;;;0.00;99.90;;;;;;5111327;28;20059;-74
2023/04/04 01:43:37;;;;;;;10.52;4.95;;;-0.10;1.00;;;;;;5112195;28;20137;-73
2023/04/04 01:46:03;;;;;;;8.77;4.82;;;-0.20;1.00;;;;;;5111717;28;20032;-73
2023/04/04 01:48:28;;;;;;;9.27;5.07;;;-0.20;1.00;;;;;;5112122;28;20034;-74
2023/04/04 01:50:55;;;;;;;9.20;4.22;;;-0.40;1.00;;;;;;5112001;28;20040;-74
2023/04/04 01:53:20;;;;;;;10.55;4.85;;;-0.50;1.00;;;;;;5111098;28;20119;-73
2023/04/04 01:55:46;;;;;;;11.48;4.68;;;-0.50;1.00;;;;;;5111863;28;20098;-73
2023/04/04 01:58:11;;;;;;;11.93;4.72;;;-0.60;1.00;;;;;;5111330;28;20441;-73
2023/04/04 02:00:37;;;;;;;7.40;4.50;;;-0.60;1.00;;;;;;5110940;28;20378;-74
2023/04/04 02:03:02;;;;;;;9.10;4.68;;;-0.70;1.00;;;;;;5111531;28;20038;-74
2023/04/04 02:05:28;;;;;;;12.07;4.25;;;-0.70;1.00;;;;;;5111411;28;20127;-73
2023/04/04 02:07:54;;;;;;;7.47;3.97;;;-0.70;1.00;;;;;;5111438;28;20035;-73
2023/04/04 02:10:20;;;;;;;12.57;4.45;;;-0.80;1.00;;;;;;5110499;28;20385;-73
2023/04/04 02:12:46;;;;;;;7.32;4.35;;;-0.80;1.00;;;;;;5111254;28;20036;-73
2023/04/04 02:15:11;;;;;;;6.57;4.18;;;-0.90;1.00;;;;;;5111310;28;20032;-73
2023/04/04 02:17:38;;;;;;;6.32;3.95;;;-0.90;1.00;;;;;;5111114;28;20031;-73
2023/04/04 02:20:04;;;;;;;10.05;5.10;;;-1.00;1.00;;;;;;5111142;28;20024;-74
2023/04/04 02:22:30;;;;;;;9.05;4.57;;;-1.00;1.00;;;;;;5110749;28;20604;-74
2023/04/04 02:24:56;;;;;;;7.53;4.72;;;-1.00;1.00;;;;;;5110892;28;20114;-74
2023/04/04 02:27:22;;;;;;;10.98;4.90;;;-1.00;1.00;;;;;;5110234;28;20036;-74
2023/04/04 02:29:48;;;;;;;9.82;4.50;;;-1.10;1.00;;;;;;5110811;28;20038;-73
2023/04/04 02:32:14;;;;;;;8.40;4.65;;;-1.20;1.00;;;;;;5110596;28;20035;-74
2023/04/04 02:34:39;;;;;;;8.95;4.63;;;-1.20;1.00;;;;;;5110115;28;20051;-73
2023/04/04 02:37:05;;;;;;;9.90;4.75;;;-1.20;1.00;;;;;;5110512;28;20076;-73
2023/04/04 02:39:30;;;;;;;10.20;5.03;;;-1.20;1.00;;;;;;5110864;28;20050;-73
2023/04/04 02:41:56;;;;;;;8.48;4.57;;;-1.20;1.00;;;;;;5110718;28;20103;-73
2023/04/04 02:44:22;;;;;;;10.13;5.35;;;-1.20;1.00;;;;;;5109346;28;20118;-73
2023/04/04 02:46:48;;;;;;;11.05;4.80;;;-1.20;1.00;;;;;;5096461;28;20092;-73
2023/04/04 02:49:14;;;;;;;8.73;4.80;;;-1.30;1.00;;;;;;5097131;28;20520;-74
2023/04/04 02:51:40;;;;;;;11.55;5.25;;;-1.30;1.00;;;;;;5097030;28;20028;-74
2023/04/04 02:54:05;;;;;;;12.63;5.55;;;-1.30;1.00;;;;;;5097056;28;20036;-73
2023/04/04 02:56:31;;;;;;;9.70;4.88;;;-1.40;1.00;;;;;;5096076;28;20308;-74
2023/04/04 02:58:58;;;;;;;14.30;5.65;;;-1.40;1.00;;;;;;5096162;28;20378;-73
2023/04/04 03:01:23;;;;;;;9.35;4.88;;;-1.40;1.00;;;;;;5096418;28;20107;-74
2023/04/04 03:03:49;;;;;;;7.97;4.40;;;-1.40;1.00;;;;;;5096874;28;20506;-73
2023/04/04 03:06:15;;;;;;;7.78;4.45;;;-1.40;1.00;;;;;;5096597;28;20031;-74
2023/04/04 03:08:40;;;;;;;7.90;4.32;;;-1.40;1.00;;;;;;5096541;28;20032;-74
2023/04/04 03:11:05;;;;;;;7.97;4.63;;;-1.50;1.00;;;;;;5096698;28;20123;-73
2023/04/04 03:13:31;;;;;;;8.80;4.40;;;-1.50;1.00;;;;;;5096696;28;20065;-74
2023/04/04 03:16:01;;;;;;;7.25;4.53;;;-1.50;1.00;;;;;;5096952;28;20016;-73
2023/04/04 03:18:27;;;;;;;7.90;4.38;;;-1.60;1.00;;;;;;5096713;28;20034;-74
2023/04/04 03:20:52;;;;;;;9.55;4.68;;;-1.60;1.00;;;;;;5095776;28;20111;-73
2023/04/04 03:23:18;;;;;;;8.43;4.70;;;-1.60;1.00;;;;;;5096012;28;20026;-74
2023/04/04 03:25:44;;;;;;;10.10;4.65;;;-1.60;1.00;;;;;;5095807;28;20477;-74
2023/04/04 03:28:11;;;;;;;9.45;4.28;;;-1.70;1.00;;;;;;5096104;28;20020;-73
2023/04/04 03:30:37;;;;;;;7.63;4.68;;;-1.70;3.70;;;;;;5096066;28;20438;-73
2023/04/04 03:33:06;;;;;;;9.02;4.95;;;-1.70;7.70;;;;;;5096265;28;20068;-74
2023/04/04 03:35:32;;;;;;;9.75;4.88;;;-1.70;9.40;;;;;;5095241;28;20448;-74
2023/04/04 03:38:01;;;;;;;14.95;5.32;;;-1.70;11.10;;;;;;5095328;28;20024;-74
2023/04/04 03:40:26;;;;;;;9.23;5.53;;;-1.70;11.20;;;;;;5096093;28;20035;-73
2023/04/04 03:42:52;;;;;;;10.88;5.03;;;-1.80;12.80;;;;;;5095800;28;20040;-73
2023/04/04 03:45:17;;;;;;;8.88;4.90;;;-1.80;14.50;;;;;;5095701;28;20028;-73
2023/04/04 03:47:43;;;;;;;9.98;4.88;;;-1.90;17.60;;;;;;5095664;28;20070;-73
2023/04/04 03:50:09;;;;;;;7.72;4.60;;;-1.90;20.90;;;;;;5095231;28;20031;-74
2023/04/04 03:52:39;;;;;;;14.20;6.05;;;-1.90;22.90;;;;;;5095373;28;20448;-74
2023/04/04 03:55:06;;;;;;;9.10;5.32;;;-1.90;26.00;;;;;;5095884;28;20073;-73
2023/04/04 03:57:32;;;;;;;8.95;4.90;;;-1.90;28.70;;;;;;5094827;28;20373;-74
2023/04/04 03:59:57;;;;;;;9.55;4.82;;;-2.00;29.70;;;;;;5095537;28;20020;-74
2023/04/04 04:02:23;;;;;;;9.68;5.30;;;-2.00;31.60;;;;;;5095258;28;20077;-73
2023/04/04 04:04:48;;;;;;;11.52;5.30;;;-2.10;32.50;;;;;;5095619;28;20093;-73
2023/04/04 04:07:14;;;;;;;10.95;4.68;;;-2.10;35.50;;;;;;5095084;28;20028;-74
2023/04/04 04:09:39;;;;;;;10.45;4.75;;;-2.10;37.50;;;;;;5095460;28;20043;-74
2023/04/04 04:12:05;;;;;;;9.93;5.22;;;-2.10;40.00;;;;;;5095043;28;20032;-73
2023/04/04 04:14:31;;;;;;;8.43;4.57;;;-2.10;43.60;;;;;;5095390;28;20028;-74
2023/04/04 04:16:56;;;;;;;13.57;5.82;;;-2.10;46.00;;;;;;5094848;28;20048;-74
2023/04/04 04:19:22;;;;;;;9.95;5.35;;;-2.10;48.10;;;;;;5095169;28;20024;-74
2023/04/04 04:21:47;;;;;;;8.68;5.22;;;-2.20;50.60;;;;;;5095447;28;20057;-74
2023/04/04 04:24:13;;;;;;;16.48;6.30;;;-2.20;52.80;;;;;;5095033;28;20031;-75
2023/04/04 04:26:38;;;;;;;9.60;5.70;;;-2.20;55.40;;;;;;5095332;28;20074;-74
2023/04/04 04:29:04;;;;;;;9.52;5.82;;;-2.20;58.10;;;;;;5094917;28;20063;-73
2023/04/04 04:31:30;;;;;;;12.85;5.57;;;-2.20;64.60;;;;;;5095386;28;20419;-73
2023/04/04 04:33:55;;;;;;;9.55;6.28;;;-2.20;68.60;;;;;;5094651;28;20089;-73
2023/04/04 04:36:21;;;;;;;10.88;5.93;;;-2.20;72.10;;;;;;5095034;28;20453;-73
2023/04/04 04:38:48;;;;;;;8.63;5.25;;;-2.20;74.70;;;;;;5095266;28;20028;-74
2023/04/04 04:41:13;;;;;;;10.98;5.38;;;-2.30;75.10;;;;;;5095230;28;20020;-73
2023/04/04 04:43:40;;;;;;;8.57;5.10;;;-2.30;76.70;;;;;;5094910;28;20032;-73
2023/04/04 04:46:07;;;;;;;12.32;5.50;;;-2.30;80.50;;;;;;5094845;28;20036;-74
2023/04/04 04:48:33;;;;;;;9.15;5.78;;;-2.30;84.80;;;;;;5094923;28;20036;-73
2023/04/04 04:50:58;;;;;;;10.32;5.53;;;-2.20;88.00;;;;;;5094623;28;20085;-74
2023/04/04 04:53:24;;;;;;;9.45;4.85;;;-2.20;90.10;;;;;;5094141;28;20110;-73
2023/04/04 04:55:51;;;;;;;10.13;5.70;;;-2.20;90.80;;;;;;5094744;28;20035;-73
2023/04/04 04:58:20;;;;;;;11.63;6.07;;;-2.10;91.60;;;;;;5094308;28;20038;-74
2023/04/04 05:00:45;;;;;;;10.90;6.85;;;-2.10;91.90;;;;;;5094625;28;20145;-74
2023/04/04 05:03:11;;;;;;;16.17;7.28;;;-2.10;92.70;;;;;;5094165;28;20028;-73
2023/04/04 05:05:37;;;;;;;12.80;6.90;;;-2.10;92.80;;;;;;5094299;28;20103;-74
2023/04/04 05:08:03;;;;;;;18.70;7.97;;;-2.00;93.80;;;;;;5093819;28;20081;-73
2023/04/04 05:10:30;;;;;;;15.18;8.38;;;-2.00;94.40;;;;;;5094615;28;20092;-73
2023/04/04 05:12:55;;;;;;;13.85;7.88;;;-1.90;95.90;;;;;;5094642;28;20453;-74
2023/04/04 05:15:21;;;;;;;16.38;7.72;;;-1.80;96.50;;;;;;5094563;28;20034;-74
2023/04/04 05:17:47;;;;;;;15.07;7.45;;;-1.80;97.10;;;;;;5094422;28;20119;-74
2023/04/04 05:20:13;;;;;;;16.33;6.72;;;-1.70;97.90;;;;;;5094415;28;20376;-74
2023/04/04 05:22:43;;;;;;;12.00;6.55;;;-1.60;98.00;;;;;;5094311;28;20032;-74
2023/04/04 05:25:09;;;;;;;14.55;6.50;;;-1.50;97.60;;;;;;5094378;28;20040;-74
2023/04/04 05:27:34;;;;;;;12.55;6.53;;;-1.40;97.40;;;;;;5093964;28;20023;-74
2023/04/04 05:30:00;;;;;;;11.60;6.60;;;-1.30;96.70;;;;;;5094229;28;20042;-74
2023/04/04 05:32:25;;;;;;;14.50;6.75;;;-1.20;94.90;;;;;;5093893;28;20032;-74
2023/04/04 05:34:51;;;;;;;11.82;6.50;;;-1.00;93.90;;;;;;5093338;28;20067;-74
2023/04/04 05:37:16;;;;;;;10.88;6.57;;;-0.90;93.20;;;;;;5094253;28;20024;-74
2023/04/04 05:39:42;;;;;;;14.38;6.63;;;-0.60;93.70;;;;;;5093896;28;20039;-74
2023/04/04 05:42:07;;;;;;;15.70;6.45;;;-0.30;93.40;;;;;;5094260;28;20024;-74
2023/04/04 05:44:33;;;;;;;13.25;6.50;;;0.00;90.70;;;;;;5094494;28;20028;-73
2023/04/04 05:46:58;;;;;;;9.90;5.90;;;0.50;87.20;;;;;;5093557;28;20050;-74
2023/04/04 05:49:24;;;;;;;11.65;6.00;;;1.20;73.30;;;;;;5093517;28;20020;-73
2023/04/04 05:51:49;;;;;;;11.45;5.82;;;2.10;53.50;;;;;;5094174;28;20028;-75
2023/04/04 05:54:15;;;;;;;11.98;5.57;;;2.90;24.00;;;;;;5093553;28;20032;-74
2023/04/04 05:56:40;;;;;;;11.13;6.10;;;3.70;1.00;;;;;;5093776;28;20028;-73
2023/04/04 05:59:06;;;;;;;13.82;6.93;;;4.30;99.90;;;;;;5093002;28;20036;-75
2023/04/04 06:01:32;;;;;;;11.00;6.05;;;;;;;;;;5090459;28;20028;-71
2023/04/04 06:03:59;;;;;;;10.65;6.03;;;4.50;99.90;;;;;;5090154;28;20520;-73
2023/04/04 06:06:26;;;;;;;24.70;10.65;;;4.00;6.20;;;;;;5092709;28;20028;-73
2023/04/04 06:08:51;;;;;;;38.28;13.70;;;3.60;1.00;;;;;;5094210;28;20025;-74
2023/04/04 06:11:17;;;;;;;41.47;14.45;;;3.40;91.90;;;;;;5092390;28;20401;-74
2023/04/04 06:13:42;;;;;;;31.85;11.85;;;3.50;99.90;;;;;;5090630;28;20085;-74
2023/04/04 06:16:08;;;;;;;21.38;9.63;;;3.80;99.90;;;;;;5092287;28;20491;-74
2023/04/04 06:18:33;;;;;;;21.33;7.63;;;3.80;1.00;;;;;;5093180;28;20099;-73
2023/04/04 06:20:59;;;;;;;16.80;6.93;;;3.60;99.90;;;;;;5094205;28;20500;-74
2023/04/04 06:23:24;;;;;;;17.50;6.88;;;3.60;99.90;;;;;;5095466;28;20036;-74
2023/04/04 06:25:52;;;;;;;11.68;5.68;;;3.60;12.10;;;;;;5091487;28;20107;-73
2023/04/04 06:28:17;;;;;;;15.90;6.30;;;3.80;99.90;;;;;;5095969;28;20036;-74
2023/04/04 06:30:43;;;;;;;13.23;5.82;;;4.00;99.90;;;;;;5096756;28;20093;-74
2023/04/04 06:33:09;;;;;;;12.50;5.63;;;4.40;1.00;;;;;;5094618;28;20368;-74
2023/04/04 06:35:35;;;;;;;8.40;4.38;;;5.30;99.90;;;;;;5088801;28;20040;-72
2023/04/04 06:38:01;;;;;;;8.15;4.38;;;7.00;99.90;;;;;;5086763;28;20032;-73
2023/04/04 06:40:27;;;;;;;7.35;4.07;;;8.20;1.00;;;;;;5084505;28;20066;-73
2023/04/04 06:42:56;;;;;;;6.78;3.67;;;9.00;4.90;;;;;;5086733;28;20039;-73
2023/04/04 06:45:22;;;;;;;10.63;4.15;;;9.60;1.00;;;;;;5090531;28;20599;-73
2023/04/04 06:47:49;;;;;;;6.35;4.05;;;10.10;99.90;;;;;;5090966;28;20022;-74
2023/04/04 06:50:15;;;;;;;9.13;4.22;;;10.20;99.90;;;;;;5090535;28;20046;-70
2023/04/04 06:52:40;;;;;;;10.50;4.13;;;10.60;82.90;;;;;;5094603;28;20107;-74
2023/04/04 06:55:07;;;;;;;8.15;4.18;;;10.70;6.00;;;;;;5094131;28;20063;-74
2023/04/04 06:57:32;;;;;;;6.78;4.07;;;11.50;66.30;;;;;;5092970;28;20048;-73
2023/04/04 06:59:58;;;;;;;6.70;3.75;;;10.80;1.00;;;;;;5096281;28;20028;-74
2023/04/04 07:02:23;;;;;;;8.75;3.75;;;11.20;1.00;;;;;;5095242;28;20020;-73
2023/04/04 07:04:49;;;;;;;6.80;3.47;;;;;;;;;;5096430;28;20035;-75
2023/04/04 07:07:15;;;;;;;8.32;3.90;;;11.90;1.00;;;;;;5087735;28;20020;-71
2023/04/04 07:09:41;;;;;;;6.85;3.75;;;11.50;1.00;;;;;;5091164;28;20024;-74
2023/04/04 07:12:06;;;;;;;6.30;3.63;;;11.90;1.00;;;;;;5094467;28;20536;-77
2023/04/04 07:14:32;;;;;;;7.20;3.53;;;12.50;99.90;;;;;;5092124;28;20024;-73
2023/04/04 07:16:57;;;;;;;7.65;3.72;;;12.30;99.90;;;;;;5087933;28;20024;-74
2023/04/04 07:19:27;;;;;;;6.03;3.38;;;12.70;99.90;;;;;;5105260;28;20064;-74
2023/04/04 07:21:53;;;;;;;5.53;3.22;;;12.50;99.90;;;;;;5092358;28;20520;-74
2023/04/04 07:24:18;;;;;;;6.85;3.30;;;12.50;99.90;;;;;;5094848;28;20028;-74
2023/04/04 07:26:44;;;;;;;6.05;3.17;;;13.20;99.90;;;;;;5102612;28;20050;-74
2023/04/04 07:29:10;;;;;;;6.60;3.00;;;13.00;1.00;;;;;;5096027;28;20496;-74
2023/04/04 07:31:35;;;;;;;5.93;3.10;;;13.10;1.00;;;;;;5094786;28;20058;-75
2023/04/04 07:34:02;;;;;;;5.63;3.17;;;12.80;1.00;;;;;;5095165;28;20040;-75
2023/04/04 07:36:28;;;;;;;7.60;3.47;;;12.60;1.00;;;;;;5092590;28;20059;-72
2023/04/04 07:38:54;;;;;;;5.00;3.08;;;12.60;1.00;;;;;;5086215;28;20052;-74
2023/04/04 07:41:20;;;;;;;6.32;3.10;;;12.90;1.00;;;;;;5082096;28;20033;-74
2023/04/04 07:43:46;;;;;;;5.93;2.70;;;13.00;1.00;;;;;;5077052;28;20097;-74
2023/04/04 07:46:11;;;;;;;7.68;3.38;;;12.70;1.00;;;;;;5085328;28;20027;-73
2023/04/04 07:48:37;;;;;;;5.18;2.92;;;13.20;1.00;;;;;;5076860;28;20032;-74
2023/04/04 07:51:04;;;;;;;5.13;2.58;;;13.50;1.00;;;;;;5084177;28;20124;-69
2023/04/04 07:53:30;;;;;;;5.50;2.65;;;13.20;1.00;;;;;;5082477;28;20087;-72
2023/04/04 07:55:55;;;;;;;5.95;2.88;;;13.10;1.00;;;;;;5088698;28;20060;-72
2023/04/04 07:58:21;;;;;;;5.22;2.55;;;14.40;1.00;;;;;;5090666;28;20020;-74
2023/04/04 08:00:46;;;;;;;4.75;2.30;;;13.50;1.00;;;;;;5090445;28;20497;-72
2023/04/04 08:03:12;;;;;;;5.28;2.55;;;13.90;1.00;;;;;;5092155;28;20045;-75
2023/04/04 08:05:38;;;;;;;3.63;1.90;;;14.50;1.00;;;;;;5088690;28;20055;-71
2023/04/04 08:08:04;;;;;;;3.88;2.00;;;13.90;1.00;;;;;;5087937;28;20062;-73
2023/04/04 08:10:29;;;;;;;4.50;1.90;;;15.10;1.00;;;;;;5093367;28;20389;-73
2023/04/04 08:12:55;;;;;;;4.65;2.15;;;15.40;1.00;;;;;;5090759;28;20035;-72
2023/04/04 08:15:20;;;;;;;3.78;2.03;;;14.60;1.00;;;;;;5093578;28;20031;-71
2023/04/04 08:17:46;;;;;;;3.35;1.83;;;14.60;1.00;;;;;;5090269;28;20032;-73
2023/04/04 08:20:11;;;;;;;7.20;2.42;;;15.10;1.00;;;;;;5086425;28;20413;-67
2023/04/04 08:22:39;;;;;;;4.05;2.35;;;14.10;1.00;;;;;;5106649;28;20141;-73
2023/04/04 08:25:05;;;;;;;7.25;2.60;;;13.50;1.00;;;;;;5095045;28;20043;-74
2023/04/04 08:27:31;;;;;;;4.00;1.90;;;14.30;1.00;;;;;;5097398;28;20028;-74
2023/04/04 08:29:57;;;;;;;4.88;1.90;;;13.50;1.00;;;;;;5092853;28;20461;-73
2023/04/04 08:32:22;;;;;;;4.05;2.08;;;14.00;1.00;;;;;;5092839;28;20047;-68
2023/04/04 08:34:48;;;;;;;5.07;2.20;;;14.00;1.00;;;;;;5090505;28;20389;-72
2023/04/04 08:37:14;;;;;;;6.22;2.13;;;13.40;1.00;;;;;;5092869;28;20039;-74
2023/04/04 08:39:39;;;;;;;3.28;2.05;;;13.60;1.00;;;;;;5088445;28;20077;-72
2023/04/04 08:42:06;;;;;;;3.83;2.40;;;13.30;1.00;;;;;;5093636;28;20149;-75
2023/04/04 08:44:33;;;;;;;5.18;2.60;;;14.00;1.00;;;;;;5091534;28;20032;-75
2023/04/04 08:47:04;;;;;;;9.60;2.50;;;13.30;1.00;;;;;;5093210;28;20104;-74
2023/04/04 08:49:34;;;;;;;5.85;2.58;;;13.60;1.00;;;;;;5074580;28;20386;-75
2023/04/04 08:52:02;;;;;;;6.07;2.70;;;13.30;1.00;;;;;;5085966;28;20020;-71
2023/04/04 08:54:30;;;;;;;4.95;2.17;;;13.30;1.00;;;;;;5089305;28;20123;-74
2023/04/04 08:56:56;;;;;;;2.80;1.98;;;13.60;1.00;;;;;;5092623;28;20098;-74
2023/04/04 08:59:21;;;;;;;4.80;1.80;;;12.90;1.00;;;;;;5093545;28;20373;-74
2023/04/04 09:01:48;;;;;;;4.60;2.42;;;11.70;1.00;;;;;;5092981;28;20016;-73
2023/04/04 09:04:14;;;;;;;5.53;2.25;;;12.00;1.00;;;;;;5093920;28;20035;-73
2023/04/04 09:06:40;;;;;;;6.38;2.67;;;11.70;1.00;;;;;;5092611;28;20032;-73
2023/04/04 09:09:06;;;;;;;4.60;2.38;;;10.60;99.90;;;;;;5087715;28;20032;-70
2023/04/04 09:11:32;;;;;;;3.67;2.20;;;11.00;99.90;;;;;;5094273;28;20042;-72
2023/04/04 09:14:01;;;;;;;6.22;2.42;;;12.10;99.90;;;;;;5078771;28;20111;-73
2023/04/04 09:16:27;;;;;;;5.50;2.63;;;13.00;99.90;;;;;;5091178;28;20019;-73
2023/04/04 09:18:53;;;;;;;4.85;2.35;;;12.70;99.90;;;;;;5083943;28;20088;-74
2023/04/04 09:21:19;;;;;;;7.03;2.38;;;13.10;99.90;;;;;;5084072;28;20027;-73
2023/04/04 09:23:44;;;;;;;5.80;2.60;;;13.10;99.90;;;;;;5093564;28;20055;-73
2023/04/04 09:26:12;;;;;;;5.82;2.65;;;13.70;99.90;;;;;;5084501;28;20024;-73
2023/04/04 09:28:37;;;;;;;7.93;2.92;;;14.20;99.90;;;;;;5082985;28;20431;-72
2023/04/04 09:31:06;;;;;;;5.15;2.58;;;14.10;99.90;;;;;;5083827;28;20056;-71
2023/04/04 09:33:33;;;;;;;6.25;3.00;;;14.00;99.90;;;;;;5083019;28;20482;-73
2023/04/04 09:36:03;;;;;;;5.78;2.88;;;12.90;99.90;;;;;;5084960;28;20024;-72
2023/04/04 09:38:30;;;;;;;6.53;2.75;;;12.10;99.90;;;;;;5089253;28;20035;-72
2023/04/04 09:40:56;;;;;;;6.85;2.40;;;12.40;99.90;;;;;;5088328;28;20031;-73
2023/04/04 09:43:24;;;;;;;5.20;2.40;;;13.90;99.90;;;;;;5075729;28;20481;-68
2023/04/04 09:45:50;;;;;;;3.47;2.33;;;13.70;99.90;;;;;;5092523;28;20036;-74
2023/04/04 09:48:26;;;;;;;4.43;2.53;;;13.70;99.90;;;;;;5085894;28;20024;-69
2023/04/04 09:50:51;;;;;;;4.00;2.67;;;12.20;99.90;;;;;;5087666;28;20024;-70
2023/04/04 09:53:17;;;;;;;5.80;2.22;;;12.20;99.90;;;;;;5081106;28;20082;-71
2023/04/04 09:55:50;;;;;;;5.53;2.65;;;12.80;99.90;;;;;;5094153;28;20028;-73
2023/04/04 09:58:17;;;;;;;4.68;2.53;;;12.80;99.90;;;;;;5095770;28;20028;-70
2023/04/04 10:00:47;;;;;;;4.85;2.72;;;13.40;99.90;;;;;;5095523;28;20036;-72
2023/04/04 10:03:14;;;;;;;8.23;2.72;;;13.60;99.90;;;;;;5096396;28;20115;-69
2023/04/04 10:05:40;;;;;;;4.22;2.47;;;12.70;99.90;;;;;;5095206;28;20402;-71
2023/04/04 10:08:16;;;;;;;3.75;1.98;;;12.10;99.90;;;;;;5094460;28;20064;-67
2023/04/04 10:10:50;;;;;;;3.45;2.17;;;11.50;99.90;;;;;;5088360;28;20119;-70
2023/04/04 10:13:25;;;;;;;5.18;2.22;;;12.70;99.90;;;;;;5090566;28;20143;-73
2023/04/04 10:15:52;;;;;;;4.00;2.10;;;11.70;99.90;;;;;;5090647;28;20016;-74
2023/04/04 10:18:23;;;;;;;5.60;2.65;;;12.50;99.90;;;;;;5078032;28;20027;-73
2023/04/04 10:20:49;;;;;;;6.80;2.42;;;13.10;99.90;;;;;;5095273;28;20144;-71
2023/04/04 10:23:15;;;;;;;6.40;2.47;;;13.20;99.90;;;;;;5094176;28;20073;-71
2023/04/04 10:25:41;;;;;;;5.03;2.13;;;12.70;99.90;;;;;;5095018;28;20544;-70
2023/04/04 10:28:07;;;;;;;4.38;2.10;;;13.00;99.90;;;;;;5087160;28;20082;-71
2023/04/04 10:30:39;;;;;;;9.32;2.53;;;13.60;99.90;;;;;;5089793;28;20086;-70
2023/04/04 10:33:11;;;;;;;3.92;2.15;;;13.20;99.90;;;;;;5093277;28;20032;-75
2023/04/04 10:35:39;;;;;;;4.75;2.45;;;13.20;99.90;;;;;;5100483;28;20136;-73
2023/04/04 10:38:07;;;;;;;6.03;2.40;;;12.80;99.90;;;;;;5089936;28;21701;-73
2023/04/04 10:40:37;;;;;;;4.22;2.63;;;12.70;99.90;;;;;;5091267;28;20069;-72
2023/04/04 10:43:04;;;;;;;3.97;2.60;;;12.60;99.90;;;;;;5093685;28;20050;-72
2023/04/04 10:45:31;;;;;;;5.50;2.38;;;13.20;99.90;;;;;;5092783;28;20062;-73
2023/04/04 10:47:58;;;;;;;4.63;2.20;;;13.40;99.90;;;;;;5095593;28;20035;-72
2023/04/04 10:50:24;;;;;;;3.58;2.20;;;12.90;99.90;;;;;;5090728;28;20026;-71
2023/04/04 10:52:51;;;;;;;6.45;2.85;;;13.50;99.90;;;;;;5091226;28;20024;-72
2023/04/04 10:55:17;;;;;;;8.05;2.33;;;13.80;99.90;;;;;;5089067;28;20028;-70
2023/04/04 10:57:46;;;;;;;5.32;2.63;;;12.60;99.90;;;;;;5092915;28;20047;-73
2023/04/04 11:00:16;;;;;;;6.50;2.65;;;12.70;99.90;;;;;;5084996;28;20440;-75
2023/04/04 11:02:45;;;;;;;5.40;2.92;;;12.70;99.90;;;;;;5065381;28;20506;-72
2023/04/04 11:05:17;;;;;;;4.47;2.35;;;12.20;99.90;;;;;;5072571;28;20068;-77
2023/04/04 11:07:45;;;;;;;4.32;2.63;;;11.90;99.90;;;;;;5073088;28;20115;-69
2023/04/04 11:10:19;;;;;;;4.47;2.60;;;11.50;99.90;;;;;;5068765;28;20141;-74
2023/04/04 11:12:46;;;;;;;10.07;2.65;;;11.80;99.90;;;;;;5070886;28;20040;-73
2023/04/04 11:15:13;;;;;;;8.07;2.83;;;11.10;99.90;;;;;;5074703;28;20055;-74
2023/04/04 11:17:57;;;;;;;6.68;2.38;;;10.70;99.90;;;;;;5074740;28;20024;-74
2023/04/04 11:20:33;;;;;;;6.97;2.90;;;10.30;99.90;;;;;;5070347;28;20024;-68
2023/04/04 11:23:05;;;;;;;5.47;2.63;;;10.00;99.90;;;;;;5074525;28;20355;-73
2023/04/04 11:25:33;;;;;;;4.63;2.83;;;10.00;99.90;;;;;;5070817;28;20508;-73
2023/04/04 11:28:07;;;;;;;5.60;2.72;;;9.80;99.90;;;;;;5072197;28;20473;-73
2023/04/04 11:30:42;;;;;;;6.90;2.83;;;9.90;99.90;;;;;;5050712;28;20542;-72
2023/04/04 11:33:09;;;;;;;6.15;2.88;;;10.00;99.90;;;;;;5068782;28;20025;-72
2023/04/04 11:35:38;;;;;;;6.13;3.08;;;10.00;99.90;;;;;;5071823;28;20489;-73
2023/04/04 11:38:12;;;;;;;5.43;2.55;;;10.00;99.90;;;;;;5075043;28;20473;-74
2023/04/04 11:40:40;;;;;;;6.07;2.92;;;10.30;99.90;;;;;;5073893;28;20125;-74
2023/04/04 11:43:08;;;;;;;9.73;3.22;;;10.70;99.90;;;;;;5074057;28;20381;-74
2023/04/04 11:45:36;;;;;;;6.60;2.95;;;10.60;99.90;;;;;;5072042;28;20029;-74
2023/04/04 11:48:03;;;;;;;5.05;2.95;;;10.50;99.90;;;;;;5064057;28;20424;-70
2023/04/04 11:50:48;;;;;;;6.82;3.28;;;10.20;99.90;;;;;;5059408;28;20024;-71
2023/04/04 11:53:14;;;;;;;5.85;3.20;;;10.20;99.90;;;;;;5066915;28;20029;-72
2023/04/04 11:55:42;;;;;;;3.47;2.45;;;9.80;99.90;;;;;;5071465;28;20094;-71
2023/04/04 11:58:10;;;;;;;6.00;3.05;;;10.00;99.90;;;;;;5070216;28;20048;-72
2023/04/04 12:00:38;;;;;;;6.53;3.67;;;10.00;99.90;;;;;;5071919;28;20025;-68
2023/04/04 12:03:07;;;;;;;7.05;3.50;;;10.10;99.90;;;;;;5054323;28;20486;-69
2023/04/04 12:05:33;;;;;;;5.65;3.28;;;10.20;99.90;;;;;;5071272;28;20511;-74
2023/04/04 12:08:01;;;;;;;7.75;3.95;;;10.00;99.90;;;;;;5071535;28;20020;-73
2023/04/04 12:10:30;;;;;;;8.00;3.47;;;10.10;99.90;;;;;;5070357;28;20028;-73
2023/04/04 12:12:57;;;;;;;7.82;3.25;;;9.70;99.90;;;;;;5072493;28;20032;-73
2023/04/04 12:15:23;;;;;;;4.07;3.08;;;9.80;99.90;;;;;;5073017;28;20037;-73
2023/04/04 12:17:50;;;;;;;7.65;3.28;;;10.40;99.90;;;;;;5073557;28;20381;-72
2023/04/04 12:20:16;;;;;;;6.95;3.60;;;10.80;99.90;;;;;;5073225;28;20024;-72
2023/04/04 12:22:42;;;;;;;6.43;3.42;;;10.60;99.90;;;;;;5072003;28;20546;-73
2023/04/04 12:25:08;;;;;;;6.53;3.95;;;10.70;99.90;;;;;;5073543;28;20047;-75
2023/04/04 12:27:35;;;;;;;7.78;3.35;;;10.20;99.90;;;;;;5074530;28;20489;-71
2023/04/04 12:30:03;;;;;;;5.65;3.58;;;10.30;99.90;;;;;;5070776;28;20028;-71
2023/04/04 12:32:29;;;;;;;5.50;3.72;;;10.30;99.90;;;;;;5072655;28;20041;-71
2023/04/04 12:34:59;;;;;;;7.47;3.83;;;10.00;99.90;;;;;;5070200;28;20036;-70
2023/04/04 12:37:28;;;;;;;7.45;3.92;;;9.70;99.90;;;;;;5072522;28;20389;-72
2023/04/04 12:39:55;;;;;;;9.23;3.75;;;9.80;99.90;;;;;;5067654;28;20024;-72
2023/04/04 12:42:23;;;;;;;9.50;3.83;;;10.20;99.90;;;;;;5070982;28;20021;-72
2023/04/04 12:44:51;;;;;;;7.30;3.63;;;10.70;99.90;;;;;;5069574;28;20392;-70
2023/04/04 12:47:17;;;;;;;9.48;3.33;;;10.40;99.90;;;;;;5069989;28;20036;-72
2023/04/04 12:49:47;;;;;;;5.32;3.53;;;10.30;99.90;;;;;;5069464;28;20565;-72
2023/04/04 12:52:20;;;;;;;8.40;3.92;;;10.10;99.90;;;;;;5068932;28;20033;-71